sensor_id;sensor_type;location;lat;lon;timestamp;pressure;altitude;pressure_sealevel;temperature;humidity
70127;BME280;57491;42.694;23.314;2023-05-10T00:00:24;95402.72;;;10.76;81.03
70127;BME280;57491;42.694;23.314;2023-05-10T00:02:51;95401.75;;;10.68;80.96
70127;BME280;57491;42.694;23.314;2023-05-10T00:05:20;95401.97;;;10.59;81.06
70127;BME280;57491;42.694;23.314;2023-05-10T00:07:47;95411.91;;;10.55;81.65
70127;BME280;57491;42.694;23.314;2023-05-10T00:10:14;95406.00;;;10.39;82.24
70127;BME280;57491;42.694;23.314;2023-05-10T00:12:42;95396.97;;;10.49;82.29
70127;BME280;57491;42.694;23.314;2023-05-10T00:15:09;95396.81;;;10.51;81.74
70127;BME280;57491;42.694;23.314;2023-05-10T00:17:36;95391.00;;;10.49;81.07
70127;BME280;57491;42.694;23.314;2023-05-10T00:20:04;95393.75;;;10.47;81.90
70127;BME280;57491;42.694;23.314;2023-05-10T00:22:33;95393.97;;;10.38;81.76
70127;BME280;57491;42.694;23.314;2023-05-10T00:25:00;95391.38;;;10.38;82.11
70127;BME280;57491;42.694;23.314;2023-05-10T00:27:27;95394.31;;;10.35;81.27
70127;BME280;57491;42.694;23.314;2023-05-10T00:29:54;95387.69;;;10.24;82.30
70127;BME280;57491;42.694;23.314;2023-05-10T00:32:21;95388.75;;;10.38;82.24
70127;BME280;57491;42.694;23.314;2023-05-10T00:34:48;95384.59;;;10.28;81.33
70127;BME280;57491;42.694;23.314;2023-05-10T00:37:15;95391.59;;;10.20;80.91
70127;BME280;57491;42.694;23.314;2023-05-10T00:39:43;95386.06;;;10.31;81.43
70127;BME280;57491;42.694;23.314;2023-05-10T00:42:10;95387.56;;;10.17;81.50
70127;BME280;57491;42.694;23.314;2023-05-10T00:44:37;95371.31;;;10.15;81.73
70127;BME280;57491;42.694;23.314;2023-05-10T00:47:04;95383.97;;;10.26;81.25
70127;BME280;57491;42.694;23.314;2023-05-10T00:49:32;95375.81;;;10.29;82.14
70127;BME280;57491;42.694;23.314;2023-05-10T00:51:59;95382.66;;;10.22;82.02
70127;BME280;57491;42.694;23.314;2023-05-10T00:54:27;95360.28;;;10.05;81.39
70127;BME280;57491;42.694;23.314;2023-05-10T00:56:56;95378.28;;;10.15;81.11
70127;BME280;57491;42.694;23.314;2023-05-10T00:59:23;95372.94;;;10.16;80.94
70127;BME280;57491;42.694;23.314;2023-05-10T01:01:51;95384.94;;;10.09;80.67
70127;BME280;57491;42.694;23.314;2023-05-10T01:04:18;95372.66;;;10.03;81.25
70127;BME280;57491;42.694;23.314;2023-05-10T01:06:51;95380.09;;;10.06;81.51
70127;BME280;57491;42.694;23.314;2023-05-10T01:09:19;95381.06;;;10.05;80.74
70127;BME280;57491;42.694;23.314;2023-05-10T01:11:47;95377.03;;;10.03;81.56
70127;BME280;57491;42.694;23.314;2023-05-10T01:14:18;95379.78;;;10.01;82.15
70127;BME280;57491;42.694;23.314;2023-05-10T01:16:47;95379.59;;;10.11;81.83
70127;BME280;57491;42.694;23.314;2023-05-10T01:19:19;95371.19;;;10.01;81.28
70127;BME280;57491;42.694;23.314;2023-05-10T01:21:49;95374.97;;;9.90;82.02
70127;BME280;57491;42.694;23.314;2023-05-10T01:27:19;95372.38;;;9.90;80.98
70127;BME280;57491;42.694;23.314;2023-05-10T01:33:10;95359.88;;;9.77;81.75
70127;BME280;57491;42.694;23.314;2023-05-10T01:35:41;95362.16;;;9.89;81.36
70127;BME280;57491;42.694;23.314;2023-05-10T01:38:15;95361.03;;;9.83;80.09
70127;BME280;57491;42.694;23.314;2023-05-10T01:40:50;95349.72;;;9.68;80.71
70127;BME280;57491;42.694;23.314;2023-05-10T01:43:28;95345.78;;;9.80;80.77
70127;BME280;57491;42.694;23.314;2023-05-10T01:45:59;95348.69;;;9.85;80.87
70127;BME280;57491;42.694;23.314;2023-05-10T01:48:32;95345.13;;;9.78;80.30
70127;BME280;57491;42.694;23.314;2023-05-10T01:51:00;95350.97;;;9.80;81.32
70127;BME280;57491;42.694;23.314;2023-05-10T01:53:27;95347.06;;;9.84;81.35
70127;BME280;57491;42.694;23.314;2023-05-10T01:55:56;95349.00;;;9.90;79.95
70127;BME280;57491;42.694;23.314;2023-05-10T01:58:27;95355.19;;;9.81;80.54
70127;BME280;57491;42.694;23.314;2023-05-10T02:00:55;95350.81;;;9.81;80.89
70127;BME280;57491;42.694;23.314;2023-05-10T02:03:25;95353.09;;;9.76;80.67
70127;BME280;57491;42.694;23.314;2023-05-10T02:05:56;95347.44;;;9.65;81.12
70127;BME280;57491;42.694;23.314;2023-05-10T02:08:24;95343.88;;;9.66;81.51
70127;BME280;57491;42.694;23.314;2023-05-10T02:10:52;95357.28;;;9.77;79.87
70127;BME280;57491;42.694;23.314;2023-05-10T02:13:19;95357.47;;;9.76;80.56
70127;BME280;57491;42.694;23.314;2023-05-10T02:15:48;95350.81;;;9.73;80.12
70127;BME280;57491;42.694;23.314;2023-05-10T02:18:16;95365.59;;;9.65;78.05
70127;BME280;57491;42.694;23.314;2023-05-10T02:20:46;95360.00;;;9.45;75.80
70127;BME280;57491;42.694;23.314;2023-05-10T02:23:16;95357.06;;;9.24;76.30
70127;BME280;57491;42.694;23.314;2023-05-10T02:25:44;95360.16;;;9.11;77.70
70127;BME280;57491;42.694;23.314;2023-05-10T02:28:14;95360.81;;;8.97;76.65
70127;BME280;57491;42.694;23.314;2023-05-10T02:30:42;95358.88;;;8.99;75.67
70127;BME280;57491;42.694;23.314;2023-05-10T02:33:10;95353.69;;;8.91;75.90
70127;BME280;57491;42.694;23.314;2023-05-10T02:35:38;95366.81;;;8.81;77.45
70127;BME280;57491;42.694;23.314;2023-05-10T02:38:06;95355.78;;;8.55;76.20
70127;BME280;57491;42.694;23.314;2023-05-10T02:40:35;95347.66;;;8.58;74.40
70127;BME280;57491;42.694;23.314;2023-05-10T02:43:04;95357.03;;;8.43;74.56
70127;BME280;57491;42.694;23.314;2023-05-10T02:45:35;95359.81;;;8.49;74.32
70127;BME280;57491;42.694;23.314;2023-05-10T02:48:04;95347.47;;;8.35;73.61
70127;BME280;57491;42.694;23.314;2023-05-10T02:50:33;95352.34;;;8.46;74.34
70127;BME280;57491;42.694;23.314;2023-05-10T02:53:06;95341.81;;;8.40;72.35
70127;BME280;57491;42.694;23.314;2023-05-10T02:55:39;95343.72;;;8.38;73.50
70127;BME280;57491;42.694;23.314;2023-05-10T02:58:07;95348.78;;;8.47;73.33
70127;BME280;57491;42.694;23.314;2023-05-10T03:00:34;95352.84;;;8.50;73.33
70127;BME280;57491;42.694;23.314;2023-05-10T03:03:02;95360.97;;;8.55;73.88
70127;BME280;57491;42.694;23.314;2023-05-10T03:05:29;95357.78;;;8.27;71.83
70127;BME280;57491;42.694;23.314;2023-05-10T03:07:56;95351.47;;;8.30;72.43
70127;BME280;57491;42.694;23.314;2023-05-10T03:10:27;95354.22;;;8.28;71.54
70127;BME280;57491;42.694;23.314;2023-05-10T03:13:09;95352.16;;;8.40;73.23
70127;BME280;57491;42.694;23.314;2023-05-10T03:15:47;95355.56;;;8.40;73.68
70127;BME280;57491;42.694;23.314;2023-05-10T03:18:22;95343.41;;;8.33;74.34
70127;BME280;57491;42.694;23.314;2023-05-10T03:20:50;95364.19;;;8.57;73.67
70127;BME280;57491;42.694;23.314;2023-05-10T03:23:22;95348.28;;;8.52;73.40
70127;BME280;57491;42.694;23.314;2023-05-10T03:25:53;95368.25;;;8.68;74.05
70127;BME280;57491;42.694;23.314;2023-05-10T03:28:24;95367.44;;;8.75;73.71
70127;BME280;57491;42.694;23.314;2023-05-10T03:30:52;95371.19;;;8.81;72.85
70127;BME280;57491;42.694;23.314;2023-05-10T03:33:19;95362.91;;;8.69;73.91
70127;BME280;57491;42.694;23.314;2023-05-10T03:35:47;95364.03;;;8.83;73.78
70127;BME280;57491;42.694;23.314;2023-05-10T03:38:14;95368.13;;;8.77;72.91
70127;BME280;57491;42.694;23.314;2023-05-10T03:40:41;95369.22;;;8.83;73.23
70127;BME280;57491;42.694;23.314;2023-05-10T03:43:08;95376.03;;;8.84;73.47
70127;BME280;57491;42.694;23.314;2023-05-10T03:45:37;95374.13;;;8.86;72.21
70127;BME280;57491;42.694;23.314;2023-05-10T03:48:04;95367.94;;;8.79;72.28
70127;BME280;57491;42.694;23.314;2023-05-10T03:50:31;95369.88;;;8.77;71.13
70127;BME280;57491;42.694;23.314;2023-05-10T03:52:58;95368.94;;;8.86;70.72
70127;BME280;57491;42.694;23.314;2023-05-10T03:55:25;95370.69;;;8.93;71.53
70127;BME280;57491;42.694;23.314;2023-05-10T03:57:52;95384.47;;;8.94;71.40
70127;BME280;57491;42.694;23.314;2023-05-10T04:00:20;95371.53;;;8.94;70.42
70127;BME280;57491;42.694;23.314;2023-05-10T04:02:49;95379.94;;;8.88;71.70
70127;BME280;57491;42.694;23.314;2023-05-10T04:05:16;95383.81;;;8.76;70.28
70127;BME280;57491;42.694;23.314;2023-05-10T04:07:43;95389.19;;;8.90;69.91
70127;BME280;57491;42.694;23.314;2023-05-10T04:10:10;95389.81;;;8.76;71.16
70127;BME280;57491;42.694;23.314;2023-05-10T04:12:38;95396.78;;;8.84;71.77
70127;BME280;57491;42.694;23.314;2023-05-10T04:15:05;95387.22;;;8.92;72.02
70127;BME280;57491;42.694;23.314;2023-05-10T04:17:33;95394.72;;;8.95;70.38
70127;BME280;57491;42.694;23.314;2023-05-10T04:20:02;95387.88;;;9.03;70.56
70127;BME280;57491;42.694;23.314;2023-05-10T04:22:29;95393.22;;;9.01;71.64
70127;BME280;57491;42.694;23.314;2023-05-10T04:24:56;95394.03;;;9.02;70.48
70127;BME280;57491;42.694;23.314;2023-05-10T04:27:23;95396.50;;;9.03;71.10
70127;BME280;57491;42.694;23.314;2023-05-10T04:29:50;95401.66;;;8.87;71.32
70127;BME280;57491;42.694;23.314;2023-05-10T04:32:17;95398.75;;;8.90;71.90
70127;BME280;57491;42.694;23.314;2023-05-10T04:34:44;95393.53;;;8.74;70.99
70127;BME280;57491;42.694;23.314;2023-05-10T04:37:13;95396.78;;;8.76;71.62
70127;BME280;57491;42.694;23.314;2023-05-10T04:39:40;95399.22;;;8.85;72.52
70127;BME280;57491;42.694;23.314;2023-05-10T04:42:07;95394.03;;;8.85;72.86
70127;BME280;57491;42.694;23.314;2023-05-10T04:44:34;95393.72;;;8.88;72.79
70127;BME280;57491;42.694;23.314;2023-05-10T04:47:01;95392.91;;;8.96;71.65
70127;BME280;57491;42.694;23.314;2023-05-10T04:49:28;95393.91;;;8.95;69.95
70127;BME280;57491;42.694;23.314;2023-05-10T04:51:56;95397.78;;;8.99;71.15
70127;BME280;57491;42.694;23.314;2023-05-10T04:54:24;95399.41;;;9.00;71.34
70127;BME280;57491;42.694;23.314;2023-05-10T04:56:51;95390.81;;;8.91;71.37
70127;BME280;57491;42.694;23.314;2023-05-10T04:59:18;95397.78;;;9.07;71.33
70127;BME280;57491;42.694;23.314;2023-05-10T05:01:46;95397.78;;;9.07;71.30
70127;BME280;57491;42.694;23.314;2023-05-10T05:04:13;95403.44;;;9.11;72.09
70127;BME280;57491;42.694;23.314;2023-05-10T05:06:41;95396.16;;;9.22;70.67
70127;BME280;57491;42.694;23.314;2023-05-10T05:09:08;95394.34;;;9.47;71.20
70127;BME280;57491;42.694;23.314;2023-05-10T05:11:38;95408.50;;;9.36;71.57
70127;BME280;57491;42.694;23.314;2023-05-10T05:14:05;95411.06;;;9.20;71.09
70127;BME280;57491;42.694;23.314;2023-05-10T05:16:32;95398.44;;;9.17;69.29
70127;BME280;57491;42.694;23.314;2023-05-10T05:18:59;95405.56;;;9.31;70.22
70127;BME280;57491;42.694;23.314;2023-05-10T05:21:27;95406.22;;;9.50;69.95
70127;BME280;57491;42.694;23.314;2023-05-10T05:23:54;95401.97;;;9.57;69.04
70127;BME280;57491;42.694;23.314;2023-05-10T05:26:21;95403.25;;;9.61;69.18
70127;BME280;57491;42.694;23.314;2023-05-10T05:28:50;95410.09;;;9.54;69.44
70127;BME280;57491;42.694;23.314;2023-05-10T05:31:20;95415.44;;;9.52;70.80
70127;BME280;57491;42.694;23.314;2023-05-10T05:33:47;95408.13;;;9.56;70.42
70127;BME280;57491;42.694;23.314;2023-05-10T05:36:14;95418.22;;;9.43;70.37
70127;BME280;57491;42.694;23.314;2023-05-10T05:38:41;95418.22;;;9.43;70.52
70127;BME280;57491;42.694;23.314;2023-05-10T05:41:08;95416.28;;;9.45;70.86
70127;BME280;57491;42.694;23.314;2023-05-10T05:43:35;95411.88;;;9.53;70.18
70127;BME280;57491;42.694;23.314;2023-05-10T05:46:04;95417.22;;;9.52;71.11
70127;BME280;57491;42.694;23.314;2023-05-10T05:48:31;95408.50;;;9.36;71.10
70127;BME280;57491;42.694;23.314;2023-05-10T05:50:58;95422.09;;;9.47;71.18
70127;BME280;57491;42.694;23.314;2023-05-10T05:53:25;95431.84;;;9.45;71.60
70127;BME280;57491;42.694;23.314;2023-05-10T05:55:52;95420.34;;;9.31;71.27
70127;BME280;57491;42.694;23.314;2023-05-10T05:58:21;95427.59;;;9.19;72.91
70127;BME280;57491;42.694;23.314;2023-05-10T06:00:48;95435.91;;;9.23;72.25
70127;BME280;57491;42.694;23.314;2023-05-10T06:03:17;95427.94;;;9.32;72.37
70127;BME280;57491;42.694;23.314;2023-05-10T06:05:44;95421.94;;;9.40;71.70
70127;BME280;57491;42.694;23.314;2023-05-10T06:08:11;95427.13;;;9.40;72.78
70127;BME280;57491;42.694;23.314;2023-05-10T06:10:38;95434.75;;;9.50;72.35
70127;BME280;57491;42.694;23.314;2023-05-10T06:13:05;95415.59;;;9.43;71.38
70127;BME280;57491;42.694;23.314;2023-05-10T06:15:32;95437.00;;;9.69;70.90
70127;BME280;57491;42.694;23.314;2023-05-10T06:17:59;95428.09;;;9.71;71.03
70127;BME280;57491;42.694;23.314;2023-05-10T06:20:27;95438.28;;;9.81;70.90
70127;BME280;57491;42.694;23.314;2023-05-10T06:22:57;95432.91;;;9.91;70.55
70127;BME280;57491;42.694;23.314;2023-05-10T06:25:23;95438.78;;;9.76;70.37
70127;BME280;57491;42.694;23.314;2023-05-10T06:27:51;95446.56;;;9.60;70.04
70127;BME280;57491;42.694;23.314;2023-05-10T06:30:23;95442.53;;;9.66;70.06
70127;BME280;57491;42.694;23.314;2023-05-10T06:32:53;95447.06;;;9.80;70.53
70127;BME280;57491;42.694;23.314;2023-05-10T06:35:20;95452.72;;;9.83;69.85
70127;BME280;57491;42.694;23.314;2023-05-10T06:37:49;95439.25;;;9.80;69.76
70127;BME280;57491;42.694;23.314;2023-05-10T06:40:17;95432.63;;;9.61;69.12
70127;BME280;57491;42.694;23.314;2023-05-10T06:42:44;95444.94;;;9.59;69.39
70127;BME280;57491;42.694;23.314;2023-05-10T06:45:12;95440.56;;;9.60;68.85
70127;BME280;57491;42.694;23.314;2023-05-10T06:47:39;95441.69;;;9.73;69.05
70127;BME280;57491;42.694;23.314;2023-05-10T06:50:07;95443.78;;;9.78;69.71
70127;BME280;57491;42.694;23.314;2023-05-10T06:52:34;95444.09;;;9.91;68.46
70127;BME280;57491;42.694;23.314;2023-05-10T06:55:03;95442.81;;;9.79;68.46
70127;BME280;57491;42.694;23.314;2023-05-10T06:57:30;95444.59;;;9.78;68.51
70127;BME280;57491;42.694;23.314;2023-05-10T06:59:58;95450.44;;;9.89;68.22
70127;BME280;57491;42.694;23.314;2023-05-10T07:02:26;95447.66;;;9.98;66.79
70127;BME280;57491;42.694;23.314;2023-05-10T07:04:53;95462.28;;;9.91;67.42
70127;BME280;57491;42.694;23.314;2023-05-10T07:07:20;95460.19;;;9.78;66.96
70127;BME280;57491;42.694;23.314;2023-05-10T07:09:47;95457.59;;;9.78;67.38
70127;BME280;57491;42.694;23.314;2023-05-10T07:12:17;95459.19;;;9.96;67.23
70127;BME280;57491;42.694;23.314;2023-05-10T07:14:44;95449.50;;;9.81;67.08
70127;BME280;57491;42.694;23.314;2023-05-10T07:17:11;95456.16;;;9.52;67.62
70127;BME280;57491;42.694;23.314;2023-05-10T07:19:38;95449.19;;;9.52;67.29
70127;BME280;57491;42.694;23.314;2023-05-10T07:22:05;95448.38;;;9.52;66.84
70127;BME280;57491;42.694;23.314;2023-05-10T07:24:32;95457.78;;;9.61;66.63
70127;BME280;57491;42.694;23.314;2023-05-10T07:26:59;95454.84;;;9.56;67.15
70127;BME280;57491;42.694;23.314;2023-05-10T07:29:27;95463.78;;;9.53;67.14
70127;BME280;57491;42.694;23.314;2023-05-10T07:31:55;95463.31;;;9.58;67.02
70127;BME280;57491;42.694;23.314;2023-05-10T07:34:22;95475.28;;;9.75;67.79
70127;BME280;57491;42.694;23.314;2023-05-10T07:36:49;95465.88;;;9.66;66.00
70127;BME280;57491;42.694;23.314;2023-05-10T07:39:16;95462.47;;;9.81;66.76
70127;BME280;57491;42.694;23.314;2023-05-10T07:41:43;95466.16;;;9.95;66.13
70127;BME280;57491;42.694;23.314;2023-05-10T07:44:10;95463.91;;;9.92;66.40
70127;BME280;57491;42.694;23.314;2023-05-10T07:46:39;95469.09;;;10.16;66.14
70127;BME280;57491;42.694;23.314;2023-05-10T07:49:05;95457.00;;;10.32;64.70
70127;BME280;57491;42.694;23.314;2023-05-10T07:51:32;95463.88;;;10.00;65.91
70127;BME280;57491;42.694;23.314;2023-05-10T07:53:59;95461.16;;;9.85;66.42
70127;BME280;57491;42.694;23.314;2023-05-10T07:56:29;95475.09;;;10.01;66.05
70127;BME280;57491;42.694;23.314;2023-05-10T07:58:58;95476.06;;;10.00;66.12
70127;BME280;57491;42.694;23.314;2023-05-10T08:01:26;95468.81;;;9.71;65.78
70127;BME280;57491;42.694;23.314;2023-05-10T08:03:54;95474.31;;;9.76;67.06
70127;BME280;57491;42.694;23.314;2023-05-10T08:06:21;95483.88;;;9.83;65.81
70127;BME280;57491;42.694;23.314;2023-05-10T08:08:49;95469.59;;;9.88;65.95
70127;BME280;57491;42.694;23.314;2023-05-10T08:11:16;95456.78;;;9.94;65.98
70127;BME280;57491;42.694;23.314;2023-05-10T08:13:43;95478.00;;;10.06;64.65
70127;BME280;57491;42.694;23.314;2023-05-10T08:16:10;95478.66;;;10.08;65.32
70127;BME280;57491;42.694;23.314;2023-05-10T08:18:38;95477.50;;;10.18;64.31
70127;BME280;57491;42.694;23.314;2023-05-10T08:21:06;95475.22;;;10.23;63.96
70127;BME280;57491;42.694;23.314;2023-05-10T08:23:33;95474.91;;;10.26;64.93
70127;BME280;57491;42.694;23.314;2023-05-10T08:26:00;95483.38;;;10.20;64.10
70127;BME280;57491;42.694;23.314;2023-05-10T08:28:27;95476.41;;;9.89;64.93
70127;BME280;57491;42.694;23.314;2023-05-10T08:30:55;95475.56;;;10.12;66.94
70127;BME280;57491;42.694;23.314;2023-05-10T08:33:22;95483.06;;;10.15;67.38
70127;BME280;57491;42.694;23.314;2023-05-10T08:35:49;95485.63;;;10.23;65.52
70127;BME280;57491;42.694;23.314;2023-05-10T08:38:18;95484.34;;;10.19;65.48
70127;BME280;57491;42.694;23.314;2023-05-10T08:40:45;95473.94;;;10.19;66.34
70127;BME280;57491;42.694;23.314;2023-05-10T08:43:13;95486.91;;;10.27;66.21
70127;BME280;57491;42.694;23.314;2023-05-10T08:45:42;95477.59;;;10.41;66.27
70127;BME280;57491;42.694;23.314;2023-05-10T08:48:11;95481.69;;;10.44;66.92
70127;BME280;57491;42.694;23.314;2023-05-10T08:50:39;95487.34;;;10.47;66.89
70127;BME280;57491;42.694;23.314;2023-05-10T08:53:09;95479.59;;;10.23;66.53
70127;BME280;57491;42.694;23.314;2023-05-10T08:55:39;95484.25;;;10.52;67.12
70127;BME280;57491;42.694;23.314;2023-05-10T08:58:08;95482.22;;;10.70;66.65
70127;BME280;57491;42.694;23.314;2023-05-10T09:00:36;95481.59;;;10.60;66.02
70127;BME280;57491;42.694;23.314;2023-05-10T09:03:04;95471.72;;;10.55;66.57
70127;BME280;57491;42.694;23.314;2023-05-10T09:05:32;95488.47;;;10.45;66.17
70127;BME280;57491;42.694;23.314;2023-05-10T09:07:59;95480.41;;;10.40;67.82
70127;BME280;57491;42.694;23.314;2023-05-10T09:10:27;95487.25;;;10.24;69.00
70127;BME280;57491;42.694;23.314;2023-05-10T09:12:57;95484.94;;;10.38;66.60
70127;BME280;57491;42.694;23.314;2023-05-10T09:15:25;95485.31;;;10.26;68.08
70127;BME280;57491;42.694;23.314;2023-05-10T09:17:52;95472.28;;;10.35;67.30
70127;BME280;57491;42.694;23.314;2023-05-10T09:20:21;95484.25;;;10.52;66.37
70127;BME280;57491;42.694;23.314;2023-05-10T09:22:48;95472.47;;;10.64;65.79
70127;BME280;57491;42.694;23.314;2023-05-10T09:25:16;95480.97;;;10.58;65.63
70127;BME280;57491;42.694;23.314;2023-05-10T09:27:44;95486.75;;;10.68;64.57
70127;BME280;57491;42.694;23.314;2023-05-10T09:30:15;95478.69;;;10.94;65.41
70127;BME280;57491;42.694;23.314;2023-05-10T09:32:44;95485.88;;;11.14;63.87
70127;BME280;57491;42.694;23.314;2023-05-10T09:35:13;95475.09;;;11.26;63.50
70127;BME280;57491;42.694;23.314;2023-05-10T09:37:41;95465.44;;;11.34;63.07
70127;BME280;57491;42.694;23.314;2023-05-10T09:40:11;95486.81;;;10.91;62.84
70127;BME280;57491;42.694;23.314;2023-05-10T09:42:38;95457.69;;;10.95;64.53
70127;BME280;57491;42.694;23.314;2023-05-10T09:45:06;95475.59;;;10.90;63.46
70127;BME280;57491;42.694;23.314;2023-05-10T09:47:35;95459.25;;;11.04;64.37
70127;BME280;57491;42.694;23.314;2023-05-10T09:50:03;95462.53;;;11.29;63.61
70127;BME280;57491;42.694;23.314;2023-05-10T09:52:46;95456.59;;;11.58;62.74
70127;BME280;57491;42.694;23.314;2023-05-10T09:55:13;95461.59;;;11.45;62.76
70127;BME280;57491;42.694;23.314;2023-05-10T09:57:40;95475.56;;;11.44;61.78
70127;BME280;57491;42.694;23.314;2023-05-10T10:00:09;95475.09;;;10.95;63.15
70127;BME280;57491;42.694;23.314;2023-05-10T10:02:38;95449.63;;;10.82;63.19
70127;BME280;57491;42.694;23.314;2023-05-10T10:05:06;95452.09;;;11.06;63.49
70127;BME280;57491;42.694;23.314;2023-05-10T10:07:33;95462.34;;;10.77;63.61
70127;BME280;57491;42.694;23.314;2023-05-10T10:10:01;95454.59;;;10.69;65.28
70127;BME280;57491;42.694;23.314;2023-05-10T10:12:28;95430.81;;;10.80;63.39
70127;BME280;57491;42.694;23.314;2023-05-10T10:14:55;95442.09;;;10.95;62.96
70127;BME280;57491;42.694;23.314;2023-05-10T10:17:25;95436.38;;;11.23;63.25
70127;BME280;57491;42.694;23.314;2023-05-10T10:19:55;95438.13;;;11.07;63.36
70127;BME280;57491;42.694;23.314;2023-05-10T10:22:23;95441.56;;;11.45;63.04
70127;BME280;57491;42.694;23.314;2023-05-10T10:24:50;95453.47;;;11.17;62.45
70127;BME280;57491;42.694;23.314;2023-05-10T10:27:23;95450.53;;;10.97;62.87
70127;BME280;57491;42.694;23.314;2023-05-10T10:30:00;95462.94;;;10.87;63.63
70127;BME280;57491;42.694;23.314;2023-05-10T10:32:55;95447.13;;;10.66;64.78
70127;BME280;57491;42.694;23.314;2023-05-10T10:35:29;95442.34;;;10.78;64.27
70127;BME280;57491;42.694;23.314;2023-05-10T10:37:57;95448.91;;;10.96;63.04
70127;BME280;57491;42.694;23.314;2023-05-10T10:40:28;95457.31;;;10.76;63.38
70127;BME280;57491;42.694;23.314;2023-05-10T10:42:56;95471.06;;;10.92;63.71
70127;BME280;57491;42.694;23.314;2023-05-10T10:45:24;95464.81;;;10.70;63.36
70127;BME280;57491;42.694;23.314;2023-05-10T10:48:21;95448.41;;;10.70;64.31
70127;BME280;57491;42.694;23.314;2023-05-10T10:50:57;95440.81;;;10.91;63.72
70127;BME280;57491;42.694;23.314;2023-05-10T10:53:26;95447.50;;;11.16;63.52
70127;BME280;57491;42.694;23.314;2023-05-10T10:56:05;95448.41;;;11.24;63.09
70127;BME280;57491;42.694;23.314;2023-05-10T10:58:33;95456.59;;;11.35;62.74
70127;BME280;57491;42.694;23.314;2023-05-10T11:01:11;95442.00;;;11.11;61.93
70127;BME280;57491;42.694;23.314;2023-05-10T11:03:39;95438.28;;;11.29;62.71
70127;BME280;57491;42.694;23.314;2023-05-10T11:06:08;95443.47;;;11.51;62.22
70127;BME280;57491;42.694;23.314;2023-05-10T11:08:41;95434.94;;;11.80;60.65
70127;BME280;57491;42.694;23.314;2023-05-10T11:11:09;95430.09;;;11.77;59.71
70127;BME280;57491;42.694;23.314;2023-05-10T11:13:41;95437.28;;;11.75;61.16
70127;BME280;57491;42.694;23.314;2023-05-10T11:16:16;95435.59;;;11.82;60.58
70127;BME280;57491;42.694;23.314;2023-05-10T11:18:54;95443.22;;;11.98;60.27
70127;BME280;57491;42.694;23.314;2023-05-10T11:21:23;95433.63;;;11.99;60.57
70127;BME280;57491;42.694;23.314;2023-05-10T11:23:52;95419.78;;;11.84;60.12
70127;BME280;57491;42.694;23.314;2023-05-10T11:26:21;95445.44;;;11.72;60.07
70127;BME280;57491;42.694;23.314;2023-05-10T11:28:51;95446.53;;;11.55;61.42
70127;BME280;57491;42.694;23.314;2023-05-10T11:31:19;95441.84;;;11.73;60.63
70127;BME280;57491;42.694;23.314;2023-05-10T11:33:48;95449.44;;;11.60;62.06
70127;BME280;57491;42.694;23.314;2023-05-10T11:36:17;95414.38;;;11.48;61.86
70127;BME280;57491;42.694;23.314;2023-05-10T11:38:46;95421.22;;;11.26;62.08
70127;BME280;57491;42.694;23.314;2023-05-10T11:41:13;95441.81;;;11.36;62.45
70127;BME280;57491;42.694;23.314;2023-05-10T11:43:41;95432.94;;;11.45;62.29
70127;BME280;57491;42.694;23.314;2023-05-10T11:46:11;95426.63;;;11.39;62.64
70127;BME280;57491;42.694;23.314;2023-05-10T11:48:38;95454.41;;;11.47;62.54
70127;BME280;57491;42.694;23.314;2023-05-10T11:51:06;95457.09;;;11.39;62.13
70127;BME280;57491;42.694;23.314;2023-05-10T11:53:34;95444.19;;;11.23;63.45
70127;BME280;57491;42.694;23.314;2023-05-10T11:56:06;95437.09;;;11.16;63.94
70127;BME280;57491;42.694;23.314;2023-05-10T11:58:34;95439.41;;;11.03;63.85
70127;BME280;57491;42.694;23.314;2023-05-10T12:01:02;95445.63;;;11.02;64.25
70127;BME280;57491;42.694;23.314;2023-05-10T12:03:30;95438.91;;;11.08;64.35
70127;BME280;57491;42.694;23.314;2023-05-10T12:05:57;95423.88;;;10.95;64.71
70127;BME280;57491;42.694;23.314;2023-05-10T12:08:26;95432.03;;;11.15;64.69
70127;BME280;57491;42.694;23.314;2023-05-10T12:11:08;95439.63;;;11.25;63.99
70127;BME280;57491;42.694;23.314;2023-05-10T12:13:37;95417.75;;;11.34;63.20
70127;BME280;57491;42.694;23.314;2023-05-10T12:16:12;95430.34;;;11.45;62.91
70127;BME280;57491;42.694;23.314;2023-05-10T12:18:40;95434.28;;;11.18;63.93
70127;BME280;57491;42.694;23.314;2023-05-10T12:21:07;95418.34;;;11.21;63.97
70127;BME280;57491;42.694;23.314;2023-05-10T12:23:36;95418.78;;;11.47;63.22
70127;BME280;57491;42.694;23.314;2023-05-10T12:26:03;95425.28;;;11.29;62.96
70127;BME280;57491;42.694;23.314;2023-05-10T12:28:32;95432.44;;;11.27;63.41
70127;BME280;57491;42.694;23.314;2023-05-10T12:30:59;95408.25;;;11.41;63.24
70127;BME280;57491;42.694;23.314;2023-05-10T12:33:26;95417.13;;;11.69;62.25
70127;BME280;57491;42.694;23.314;2023-05-10T12:35:54;95393.00;;;11.75;61.32
70127;BME280;57491;42.694;23.314;2023-05-10T12:38:29;95408.81;;;11.51;62.45
70127;BME280;57491;42.694;23.314;2023-05-10T12:40:57;95419.53;;;11.56;62.12
70127;BME280;57491;42.694;23.314;2023-05-10T12:43:24;95405.03;;;11.39;62.84
70127;BME280;57491;42.694;23.314;2023-05-10T12:45:53;95411.16;;;11.23;63.69
70127;BME280;57491;42.694;23.314;2023-05-10T12:48:20;95400.97;;;11.36;62.22
70127;BME280;57491;42.694;23.314;2023-05-10T12:50:47;95421.56;;;11.46;62.08
70127;BME280;57491;42.694;23.314;2023-05-10T12:53:15;95400.88;;;11.30;62.64
70127;BME280;57491;42.694;23.314;2023-05-10T12:55:42;95397.69;;;11.19;63.22
70127;BME280;57491;42.694;23.314;2023-05-10T12:58:09;95394.63;;;11.39;62.83
70127;BME280;57491;42.694;23.314;2023-05-10T13:00:36;95391.03;;;11.54;62.94
70127;BME280;57491;42.694;23.314;2023-05-10T13:03:05;95410.78;;;11.49;62.02
70127;BME280;57491;42.694;23.314;2023-05-10T13:05:32;95386.59;;;11.26;62.70
70127;BME280;57491;42.694;23.314;2023-05-10T13:07:59;95391.19;;;11.38;62.48